Lydbrook, United Kingdom
Current Conditions -  °F | °C
As of 9:20 AM on Saturday 20 Dec 2014 (Local Time) from EGBJ Reporting Station
Rain Showers Rain Showers  
Wind Chill: 42°   Ceiling: 2800
Heat Index: 46°   Visibility: 6mi
Dew Point: 37°   Wind: 9mph
Humidity: 71%   Direction: 270°W
Pressure: 30.3"   Gusts: NA
Location:  51.84°N, 2.58°W
Report Text: EGBJ 200920Z 27008KT 9999 VCSH FEW018 BKN028 08/03 Q1026
Loading
Personal Weather Stations






























Interactive Weather Map New forecast layout! Learn more

10-Day Weather Forecast

Advertisements
Track Severe Weather on mobile